sensor_id;sensor_type;location;lat;lon;timestamp;P1;durP1;ratioP1;P2;durP2;ratioP2
66800;SDS011;53703;50.326;19.122;2023-02-01T00:01:44;9.30;;;4.40;;
66800;SDS011;53703;50.326;19.122;2023-02-01T00:04:38;8.90;;;4.40;;
66800;SDS011;53703;50.326;19.122;2023-02-01T00:07:32;8.60;;;4.40;;
66800;SDS011;53703;50.326;19.122;2023-02-01T00:10:26;8.20;;;4.20;;
66800;SDS011;53703;50.326;19.122;2023-02-01T00:13:20;9.30;;;4.20;;
66800;SDS011;53703;50.326;19.122;2023-02-01T00:16:17;9.50;;;4.30;;
66800;SDS011;53703;50.326;19.122;2023-02-01T00:19:14;8.50;;;3.90;;
66800;SDS011;53703;50.326;19.122;2023-02-01T00:22:09;9.20;;;4.50;;
66800;SDS011;53703;50.326;19.122;2023-02-01T00:25:03;9.00;;;4.30;;
66800;SDS011;53703;50.326;19.122;2023-02-01T00:27:58;8.80;;;4.30;;
66800;SDS011;53703;50.326;19.122;2023-02-01T00:30:58;8.00;;;4.00;;
66800;SDS011;53703;50.326;19.122;2023-02-01T00:33:53;10.00;;;4.30;;
66800;SDS011;53703;50.326;19.122;2023-02-01T00:36:48;8.80;;;3.90;;
66800;SDS011;53703;50.326;19.122;2023-02-01T00:39:42;10.10;;;4.30;;
66800;SDS011;53703;50.326;19.122;2023-02-01T00:42:35;11.10;;;4.60;;
66800;SDS011;53703;50.326;19.122;2023-02-01T00:45:29;7.60;;;3.60;;
66800;SDS011;53703;50.326;19.122;2023-02-01T00:48:23;9.00;;;3.90;;
66800;SDS011;53703;50.326;19.122;2023-02-01T00:51:20;6.40;;;3.40;;
66800;SDS011;53703;50.326;19.122;2023-02-01T00:54:33;9.40;;;3.80;;
66800;SDS011;53703;50.326;19.122;2023-02-01T00:57:28;7.60;;;3.70;;
66800;SDS011;53703;50.326;19.122;2023-02-01T01:00:22;7.20;;;4.00;;
66800;SDS011;53703;50.326;19.122;2023-02-01T01:03:16;8.20;;;4.00;;
66800;SDS011;53703;50.326;19.122;2023-02-01T01:06:12;8.60;;;3.80;;
66800;SDS011;53703;50.326;19.122;2023-02-01T01:09:08;8.60;;;4.10;;
66800;SDS011;53703;50.326;19.122;2023-02-01T01:12:02;8.00;;;3.50;;
66800;SDS011;53703;50.326;19.122;2023-02-01T01:14:56;11.00;;;3.60;;
66800;SDS011;53703;50.326;19.122;2023-02-01T01:17:51;7.30;;;3.60;;
66800;SDS011;53703;50.326;19.122;2023-02-01T01:20:47;7.30;;;3.50;;
66800;SDS011;53703;50.326;19.122;2023-02-01T01:23:41;8.80;;;3.90;;
66800;SDS011;53703;50.326;19.122;2023-02-01T01:26:36;9.60;;;3.80;;
66800;SDS011;53703;50.326;19.122;2023-02-01T01:29:30;8.90;;;3.60;;
66800;SDS011;53703;50.326;19.122;2023-02-01T01:32:24;7.30;;;3.60;;
66800;SDS011;53703;50.326;19.122;2023-02-01T01:35:18;7.70;;;3.60;;
66800;SDS011;53703;50.326;19.122;2023-02-01T01:38:12;7.30;;;3.40;;
66800;SDS011;53703;50.326;19.122;2023-02-01T01:41:06;6.00;;;3.20;;
66800;SDS011;53703;50.326;19.122;2023-02-01T01:44:05;7.70;;;3.40;;
66800;SDS011;53703;50.326;19.122;2023-02-01T01:47:13;6.80;;;2.90;;
66800;SDS011;53703;50.326;19.122;2023-02-01T01:50:10;5.50;;;3.30;;
66800;SDS011;53703;50.326;19.122;2023-02-01T01:53:10;7.10;;;3.10;;
66800;SDS011;53703;50.326;19.122;2023-02-01T01:56:08;6.20;;;2.80;;
66800;SDS011;53703;50.326;19.122;2023-02-01T01:59:03;6.00;;;2.90;;
66800;SDS011;53703;50.326;19.122;2023-02-01T02:01:59;7.60;;;3.20;;
66800;SDS011;53703;50.326;19.122;2023-02-01T02:04:53;7.40;;;2.90;;
66800;SDS011;53703;50.326;19.122;2023-02-01T02:07:48;5.50;;;2.50;;
66800;SDS011;53703;50.326;19.122;2023-02-01T02:10:46;7.20;;;2.60;;
66800;SDS011;53703;50.326;19.122;2023-02-01T02:13:53;6.30;;;2.70;;
66800;SDS011;53703;50.326;19.122;2023-02-01T02:17:15;5.30;;;2.60;;
66800;SDS011;53703;50.326;19.122;2023-02-01T02:20:34;5.30;;;2.60;;
66800;SDS011;53703;50.326;19.122;2023-02-01T02:24:12;5.60;;;2.80;;
66800;SDS011;53703;50.326;19.122;2023-02-01T02:27:35;7.50;;;2.70;;
66800;SDS011;53703;50.326;19.122;2023-02-01T02:31:04;4.30;;;2.40;;
66800;SDS011;53703;50.326;19.122;2023-02-01T02:34:19;5.00;;;2.30;;
66800;SDS011;53703;50.326;19.122;2023-02-01T02:37:22;4.60;;;2.50;;
66800;SDS011;53703;50.326;19.122;2023-02-01T02:40:44;5.10;;;2.40;;
66800;SDS011;53703;50.326;19.122;2023-02-01T02:44:00;4.70;;;2.40;;
66800;SDS011;53703;50.326;19.122;2023-02-01T02:47:24;4.80;;;2.20;;
66800;SDS011;53703;50.326;19.122;2023-02-01T02:50:27;6.60;;;2.60;;
66800;SDS011;53703;50.326;19.122;2023-02-01T02:53:48;5.20;;;2.40;;
66800;SDS011;53703;50.326;19.122;2023-02-01T02:57:20;6.10;;;2.40;;
66800;SDS011;53703;50.326;19.122;2023-02-01T03:00:35;4.60;;;2.20;;
66800;SDS011;53703;50.326;19.122;2023-02-01T03:03:47;4.30;;;2.00;;
66800;SDS011;53703;50.326;19.122;2023-02-01T03:07:13;5.10;;;2.10;;
66800;SDS011;53703;50.326;19.122;2023-02-01T03:10:32;4.30;;;2.00;;
66800;SDS011;53703;50.326;19.122;2023-02-01T03:13:35;5.30;;;2.60;;
66800;SDS011;53703;50.326;19.122;2023-02-01T03:16:54;3.90;;;1.80;;
66800;SDS011;53703;50.326;19.122;2023-02-01T03:19:53;4.00;;;2.10;;
66800;SDS011;53703;50.326;19.122;2023-02-01T03:22:52;4.60;;;1.90;;
66800;SDS011;53703;50.326;19.122;2023-02-01T03:25:48;4.20;;;2.00;;
66800;SDS011;53703;50.326;19.122;2023-02-01T03:29:05;4.20;;;1.80;;
66800;SDS011;53703;50.326;19.122;2023-02-01T03:32:06;4.70;;;1.80;;
66800;SDS011;53703;50.326;19.122;2023-02-01T03:35:01;2.80;;;1.70;;
66800;SDS011;53703;50.326;19.122;2023-02-01T03:37:56;3.80;;;1.70;;
66800;SDS011;53703;50.326;19.122;2023-02-01T03:41:10;4.60;;;1.90;;
66800;SDS011;53703;50.326;19.122;2023-02-01T03:44:11;2.80;;;1.50;;
66800;SDS011;53703;50.326;19.122;2023-02-01T03:47:06;3.40;;;1.60;;
66800;SDS011;53703;50.326;19.122;2023-02-01T03:50:06;3.90;;;1.90;;
66800;SDS011;53703;50.326;19.122;2023-02-01T03:53:06;4.10;;;1.90;;
66800;SDS011;53703;50.326;19.122;2023-02-01T03:56:21;3.60;;;1.80;;
66800;SDS011;53703;50.326;19.122;2023-02-01T03:59:29;3.10;;;1.60;;
66800;SDS011;53703;50.326;19.122;2023-02-01T04:02:23;3.60;;;1.70;;
66800;SDS011;53703;50.326;19.122;2023-02-01T04:05:18;4.00;;;1.70;;
66800;SDS011;53703;50.326;19.122;2023-02-01T04:08:12;3.30;;;1.80;;
66800;SDS011;53703;50.326;19.122;2023-02-01T04:11:06;3.70;;;1.60;;
66800;SDS011;53703;50.326;19.122;2023-02-01T04:14:00;2.60;;;1.50;;
66800;SDS011;53703;50.326;19.122;2023-02-01T04:16:55;4.20;;;1.70;;
66800;SDS011;53703;50.326;19.122;2023-02-01T04:19:49;4.00;;;1.70;;
66800;SDS011;53703;50.326;19.122;2023-02-01T04:22:45;2.70;;;1.50;;
66800;SDS011;53703;50.326;19.122;2023-02-01T04:25:39;3.10;;;1.50;;
66800;SDS011;53703;50.326;19.122;2023-02-01T04:28:33;3.70;;;1.40;;
66800;SDS011;53703;50.326;19.122;2023-02-01T04:31:27;5.10;;;1.50;;
66800;SDS011;53703;50.326;19.122;2023-02-01T04:34:21;2.80;;;1.30;;
66800;SDS011;53703;50.326;19.122;2023-02-01T04:37:15;3.40;;;1.60;;
66800;SDS011;53703;50.326;19.122;2023-02-01T04:40:11;3.80;;;1.40;;
66800;SDS011;53703;50.326;19.122;2023-02-01T04:43:05;3.40;;;1.50;;
66800;SDS011;53703;50.326;19.122;2023-02-01T04:45:59;2.70;;;1.50;;
66800;SDS011;53703;50.326;19.122;2023-02-01T04:48:53;5.10;;;1.90;;
66800;SDS011;53703;50.326;19.122;2023-02-01T04:51:47;3.00;;;1.40;;
66800;SDS011;53703;50.326;19.122;2023-02-01T04:54:41;2.60;;;1.30;;
66800;SDS011;53703;50.326;19.122;2023-02-01T04:57:35;2.10;;;1.40;;
66800;SDS011;53703;50.326;19.122;2023-02-01T05:00:31;4.40;;;1.60;;
66800;SDS011;53703;50.326;19.122;2023-02-01T05:03:25;2.40;;;1.50;;
66800;SDS011;53703;50.326;19.122;2023-02-01T05:06:19;3.20;;;1.40;;
66800;SDS011;53703;50.326;19.122;2023-02-01T05:09:13;5.40;;;2.60;;
66800;SDS011;53703;50.326;19.122;2023-02-01T05:12:07;4.20;;;2.10;;
66800;SDS011;53703;50.326;19.122;2023-02-01T05:15:19;2.30;;;1.40;;
66800;SDS011;53703;50.326;19.122;2023-02-01T05:18:13;3.50;;;1.40;;
66800;SDS011;53703;50.326;19.122;2023-02-01T05:21:07;2.90;;;1.50;;
66800;SDS011;53703;50.326;19.122;2023-02-01T05:24:01;3.40;;;1.80;;
66800;SDS011;53703;50.326;19.122;2023-02-01T05:27:03;4.90;;;2.10;;
66800;SDS011;53703;50.326;19.122;2023-02-01T05:29:58;3.90;;;1.90;;
66800;SDS011;53703;50.326;19.122;2023-02-01T05:32:52;4.30;;;1.90;;
66800;SDS011;53703;50.326;19.122;2023-02-01T05:35:46;3.10;;;1.80;;
66800;SDS011;53703;50.326;19.122;2023-02-01T05:38:41;4.70;;;2.00;;
66800;SDS011;53703;50.326;19.122;2023-02-01T05:41:36;4.40;;;2.10;;
66800;SDS011;53703;50.326;19.122;2023-02-01T05:44:30;5.00;;;2.00;;
66800;SDS011;53703;50.326;19.122;2023-02-01T05:47:24;3.10;;;1.70;;
66800;SDS011;53703;50.326;19.122;2023-02-01T05:50:18;5.60;;;2.00;;
66800;SDS011;53703;50.326;19.122;2023-02-01T05:53:12;3.90;;;1.60;;
66800;SDS011;53703;50.326;19.122;2023-02-01T05:56:07;3.50;;;1.60;;
66800;SDS011;53703;50.326;19.122;2023-02-01T05:59:01;4.90;;;1.90;;
66800;SDS011;53703;50.326;19.122;2023-02-01T06:01:55;4.30;;;1.90;;
66800;SDS011;53703;50.326;19.122;2023-02-01T06:04:49;3.60;;;1.90;;
66800;SDS011;53703;50.326;19.122;2023-02-01T06:07:43;7.40;;;2.00;;
66800;SDS011;53703;50.326;19.122;2023-02-01T06:10:37;3.00;;;1.80;;
66800;SDS011;53703;50.326;19.122;2023-02-01T06:13:31;3.60;;;1.90;;
66800;SDS011;53703;50.326;19.122;2023-02-01T06:16:26;5.30;;;1.90;;
66800;SDS011;53703;50.326;19.122;2023-02-01T06:19:20;4.70;;;2.00;;
66800;SDS011;53703;50.326;19.122;2023-02-01T06:22:14;3.10;;;2.10;;
66800;SDS011;53703;50.326;19.122;2023-02-01T06:25:09;3.20;;;1.80;;
66800;SDS011;53703;50.326;19.122;2023-02-01T06:28:03;5.80;;;1.90;;
66800;SDS011;53703;50.326;19.122;2023-02-01T06:31:02;3.80;;;1.90;;
66800;SDS011;53703;50.326;19.122;2023-02-01T06:33:57;4.50;;;2.10;;
66800;SDS011;53703;50.326;19.122;2023-02-01T06:36:51;3.40;;;2.00;;
66800;SDS011;53703;50.326;19.122;2023-02-01T06:39:46;3.30;;;1.60;;
66800;SDS011;53703;50.326;19.122;2023-02-01T06:42:39;5.30;;;1.80;;
66800;SDS011;53703;50.326;19.122;2023-02-01T06:45:33;4.30;;;1.70;;
66800;SDS011;53703;50.326;19.122;2023-02-01T06:48:27;4.00;;;1.80;;
66800;SDS011;53703;50.326;19.122;2023-02-01T06:51:25;5.90;;;1.90;;
66800;SDS011;53703;50.326;19.122;2023-02-01T06:54:20;4.00;;;1.70;;
66800;SDS011;53703;50.326;19.122;2023-02-01T06:57:15;3.10;;;1.70;;
66800;SDS011;53703;50.326;19.122;2023-02-01T07:00:11;4.70;;;2.10;;
66800;SDS011;53703;50.326;19.122;2023-02-01T07:03:06;4.90;;;2.00;;
66800;SDS011;53703;50.326;19.122;2023-02-01T07:05:59;4.80;;;1.80;;
66800;SDS011;53703;50.326;19.122;2023-02-01T07:08:54;3.50;;;1.90;;
66800;SDS011;53703;50.326;19.122;2023-02-01T07:11:48;4.00;;;1.80;;
66800;SDS011;53703;50.326;19.122;2023-02-01T07:14:42;3.50;;;1.90;;
66800;SDS011;53703;50.326;19.122;2023-02-01T07:17:36;4.70;;;2.00;;
66800;SDS011;53703;50.326;19.122;2023-02-01T07:20:30;3.60;;;1.90;;
66800;SDS011;53703;50.326;19.122;2023-02-01T07:23:23;6.60;;;2.00;;
66800;SDS011;53703;50.326;19.122;2023-02-01T07:26:19;6.00;;;2.20;;
66800;SDS011;53703;50.326;19.122;2023-02-01T07:29:13;4.90;;;1.90;;
66800;SDS011;53703;50.326;19.122;2023-02-01T07:32:07;4.50;;;2.00;;
66800;SDS011;53703;50.326;19.122;2023-02-01T07:35:01;5.10;;;2.30;;
66800;SDS011;53703;50.326;19.122;2023-02-01T07:37:56;3.80;;;1.70;;
66800;SDS011;53703;50.326;19.122;2023-02-01T07:40:51;5.10;;;2.30;;
66800;SDS011;53703;50.326;19.122;2023-02-01T07:43:53;6.30;;;2.00;;
66800;SDS011;53703;50.326;19.122;2023-02-01T07:46:47;6.80;;;2.10;;
66800;SDS011;53703;50.326;19.122;2023-02-01T07:49:41;5.00;;;2.10;;
66800;SDS011;53703;50.326;19.122;2023-02-01T07:52:35;5.80;;;2.10;;
66800;SDS011;53703;50.326;19.122;2023-02-01T07:55:29;3.90;;;1.90;;
66800;SDS011;53703;50.326;19.122;2023-02-01T07:58:23;4.90;;;2.30;;
66800;SDS011;53703;50.326;19.122;2023-02-01T08:01:20;6.40;;;2.40;;
66800;SDS011;53703;50.326;19.122;2023-02-01T08:04:15;5.30;;;2.30;;
66800;SDS011;53703;50.326;19.122;2023-02-01T08:07:09;5.30;;;2.30;;
66800;SDS011;53703;50.326;19.122;2023-02-01T08:10:04;6.30;;;2.70;;
66800;SDS011;53703;50.326;19.122;2023-02-01T08:13:02;7.20;;;2.80;;
66800;SDS011;53703;50.326;19.122;2023-02-01T08:16:00;12.70;;;2.90;;
66800;SDS011;53703;50.326;19.122;2023-02-01T08:18:56;10.20;;;2.40;;
66800;SDS011;53703;50.326;19.122;2023-02-01T08:21:49;6.90;;;3.00;;
66800;SDS011;53703;50.326;19.122;2023-02-01T08:24:43;5.70;;;3.20;;
66800;SDS011;53703;50.326;19.122;2023-02-01T08:27:39;7.70;;;3.50;;
66800;SDS011;53703;50.326;19.122;2023-02-01T08:30:33;8.90;;;4.10;;
66800;SDS011;53703;50.326;19.122;2023-02-01T08:33:18;8.00;;;3.10;;
66800;SDS011;53703;50.326;19.122;2023-02-01T08:36:12;9.30;;;3.90;;
66800;SDS011;53703;50.326;19.122;2023-02-01T08:39:06;13.00;;;4.70;;
66800;SDS011;53703;50.326;19.122;2023-02-01T08:42:00;13.50;;;5.50;;
66800;SDS011;53703;50.326;19.122;2023-02-01T08:45:12;22.10;;;6.30;;
66800;SDS011;53703;50.326;19.122;2023-02-01T08:48:07;9.80;;;3.70;;
66800;SDS011;53703;50.326;19.122;2023-02-01T08:51:02;13.10;;;4.30;;
66800;SDS011;53703;50.326;19.122;2023-02-01T08:53:57;14.50;;;4.50;;
66800;SDS011;53703;50.326;19.122;2023-02-01T08:56:51;10.20;;;4.60;;
66800;SDS011;53703;50.326;19.122;2023-02-01T08:59:47;10.10;;;4.60;;
66800;SDS011;53703;50.326;19.122;2023-02-01T09:02:23;12.90;;;4.50;;
66800;SDS011;53703;50.326;19.122;2023-02-01T09:05:17;10.50;;;4.20;;
66800;SDS011;53703;50.326;19.122;2023-02-01T09:08:13;12.00;;;4.10;;
66800;SDS011;53703;50.326;19.122;2023-02-01T09:11:10;12.10;;;4.10;;
66800;SDS011;53703;50.326;19.122;2023-02-01T09:14:05;9.90;;;3.80;;
66800;SDS011;53703;50.326;19.122;2023-02-01T09:16:59;14.70;;;4.30;;
66800;SDS011;53703;50.326;19.122;2023-02-01T09:19:53;10.40;;;4.20;;
66800;SDS011;53703;50.326;19.122;2023-02-01T09:22:47;11.30;;;3.60;;
66800;SDS011;53703;50.326;19.122;2023-02-01T09:25:41;29.70;;;11.30;;
66800;SDS011;53703;50.326;19.122;2023-02-01T09:28:35;67.00;;;34.80;;
66800;SDS011;53703;50.326;19.122;2023-02-01T09:31:29;66.90;;;35.10;;
66800;SDS011;53703;50.326;19.122;2023-02-01T09:34:23;38.10;;;16.30;;
66800;SDS011;53703;50.326;19.122;2023-02-01T09:37:17;38.20;;;16.90;;
66800;SDS011;53703;50.326;19.122;2023-02-01T09:40:15;32.60;;;14.30;;
66800;SDS011;53703;50.326;19.122;2023-02-01T09:43:20;40.60;;;14.30;;
66800;SDS011;53703;50.326;19.122;2023-02-01T09:46:23;30.70;;;14.00;;
66800;SDS011;53703;50.326;19.122;2023-02-01T09:49:22;42.60;;;17.10;;
66800;SDS011;53703;50.326;19.122;2023-02-01T09:52:45;38.10;;;16.50;;
66800;SDS011;53703;50.326;19.122;2023-02-01T09:55:46;44.80;;;17.60;;
66800;SDS011;53703;50.326;19.122;2023-02-01T09:58:43;50.80;;;17.00;;
66800;SDS011;53703;50.326;19.122;2023-02-01T10:01:41;41.40;;;15.00;;
66800;SDS011;53703;50.326;19.122;2023-02-01T10:04:35;39.00;;;13.80;;
66800;SDS011;53703;50.326;19.122;2023-02-01T10:07:33;36.20;;;14.00;;
66800;SDS011;53703;50.326;19.122;2023-02-01T10:10:38;44.10;;;15.60;;
66800;SDS011;53703;50.326;19.122;2023-02-01T10:13:47;44.20;;;17.80;;
66800;SDS011;53703;50.326;19.122;2023-02-01T10:16:56;45.40;;;16.70;;
66800;SDS011;53703;50.326;19.122;2023-02-01T10:20:09;41.80;;;17.20;;
66800;SDS011;53703;50.326;19.122;2023-02-01T10:23:06;41.70;;;16.40;;
66800;SDS011;53703;50.326;19.122;2023-02-01T10:26:25;48.30;;;16.80;;
66800;SDS011;53703;50.326;19.122;2023-02-01T10:29:26;44.30;;;17.50;;
66800;SDS011;53703;50.326;19.122;2023-02-01T10:32:31;42.70;;;16.30;;
66800;SDS011;53703;50.326;19.122;2023-02-01T10:35:29;40.30;;;16.70;;
66800;SDS011;53703;50.326;19.122;2023-02-01T10:38:29;39.90;;;16.00;;
66800;SDS011;53703;50.326;19.122;2023-02-01T10:41:24;43.50;;;16.70;;
66800;SDS011;53703;50.326;19.122;2023-02-01T10:44:26;44.80;;;17.50;;
66800;SDS011;53703;50.326;19.122;2023-02-01T10:50:18;42.00;;;17.20;;
66800;SDS011;53703;50.326;19.122;2023-02-01T10:53:28;42.20;;;16.70;;
66800;SDS011;53703;50.326;19.122;2023-02-01T10:56:29;48.10;;;18.60;;
66800;SDS011;53703;50.326;19.122;2023-02-01T10:59:24;47.00;;;19.00;;
66800;SDS011;53703;50.326;19.122;2023-02-01T11:02:26;39.90;;;17.40;;
66800;SDS011;53703;50.326;19.122;2023-02-01T11:05:22;43.40;;;18.60;;
66800;SDS011;53703;50.326;19.122;2023-02-01T11:08:17;39.30;;;17.40;;
66800;SDS011;53703;50.326;19.122;2023-02-01T11:11:12;40.50;;;17.40;;
66800;SDS011;53703;50.326;19.122;2023-02-01T11:14:15;40.90;;;17.60;;
66800;SDS011;53703;50.326;19.122;2023-02-01T11:17:23;39.00;;;17.20;;
66800;SDS011;53703;50.326;19.122;2023-02-01T11:20:12;39.00;;;16.80;;
66800;SDS011;53703;50.326;19.122;2023-02-01T11:23:15;40.80;;;17.90;;
66800;SDS011;53703;50.326;19.122;2023-02-01T11:26:13;41.00;;;17.90;;
66800;SDS011;53703;50.326;19.122;2023-02-01T11:29:16;43.00;;;18.30;;
66800;SDS011;53703;50.326;19.122;2023-02-01T11:32:20;43.70;;;19.80;;
66800;SDS011;53703;50.326;19.122;2023-02-01T11:35:18;43.60;;;18.80;;
66800;SDS011;53703;50.326;19.122;2023-02-01T11:38:21;40.70;;;18.00;;
66800;SDS011;53703;50.326;19.122;2023-02-01T11:41:14;44.00;;;18.50;;
66800;SDS011;53703;50.326;19.122;2023-02-01T11:44:21;38.40;;;17.50;;
66800;SDS011;53703;50.326;19.122;2023-02-01T11:47:23;43.00;;;18.40;;
66800;SDS011;53703;50.326;19.122;2023-02-01T11:50:22;39.10;;;17.80;;
66800;SDS011;53703;50.326;19.122;2023-02-01T11:53:29;36.80;;;17.40;;
66800;SDS011;53703;50.326;19.122;2023-02-01T11:56:33;38.00;;;16.90;;
66800;SDS011;53703;50.326;19.122;2023-02-01T11:59:56;39.10;;;17.90;;
66800;SDS011;53703;50.326;19.122;2023-02-01T12:03:10;38.80;;;17.70;;
66800;SDS011;53703;50.326;19.122;2023-02-01T12:06:22;37.50;;;17.30;;
66800;SDS011;53703;50.326;19.122;2023-02-01T12:09:34;38.30;;;17.20;;
66800;SDS011;53703;50.326;19.122;2023-02-01T12:12:43;36.40;;;16.00;;
66800;SDS011;53703;50.326;19.122;2023-02-01T12:15:44;35.80;;;15.90;;
66800;SDS011;53703;50.326;19.122;2023-02-01T12:22:04;30.50;;;13.80;;
66800;SDS011;53703;50.326;19.122;2023-02-01T12:25:22;30.70;;;14.40;;
66800;SDS011;53703;50.326;19.122;2023-02-01T12:32:08;31.70;;;13.30;;
66800;SDS011;53703;50.326;19.122;2023-02-01T12:35:19;31.60;;;14.60;;
66800;SDS011;53703;50.326;19.122;2023-02-01T12:38:39;29.40;;;14.20;;
66800;SDS011;53703;50.326;19.122;2023-02-01T12:41:58;30.60;;;14.00;;
66800;SDS011;53703;50.326;19.122;2023-02-01T12:44:57;26.40;;;12.90;;
66800;SDS011;53703;50.326;19.122;2023-02-01T12:47:57;31.10;;;13.70;;
66800;SDS011;53703;50.326;19.122;2023-02-01T12:50:59;27.70;;;12.80;;
66800;SDS011;53703;50.326;19.122;2023-02-01T12:53:59;26.80;;;13.60;;
66800;SDS011;53703;50.326;19.122;2023-02-01T12:57:00;25.50;;;11.80;;
66800;SDS011;53703;50.326;19.122;2023-02-01T13:00:05;27.50;;;13.20;;
66800;SDS011;53703;50.326;19.122;2023-02-01T13:03:10;25.10;;;12.40;;
66800;SDS011;53703;50.326;19.122;2023-02-01T13:06:12;28.70;;;12.50;;
66800;SDS011;53703;50.326;19.122;2023-02-01T13:09:14;25.10;;;12.60;;
66800;SDS011;53703;50.326;19.122;2023-02-01T13:12:15;27.30;;;13.60;;
66800;SDS011;53703;50.326;19.122;2023-02-01T13:15:15;24.50;;;11.70;;
66800;SDS011;53703;50.326;19.122;2023-02-01T13:18:16;24.80;;;12.20;;
66800;SDS011;53703;50.326;19.122;2023-02-01T13:21:15;22.90;;;11.40;;
66800;SDS011;53703;50.326;19.122;2023-02-01T13:24:24;24.60;;;12.60;;
66800;SDS011;53703;50.326;19.122;2023-02-01T13:27:25;22.40;;;11.10;;
66800;SDS011;53703;50.326;19.122;2023-02-01T13:30:22;21.90;;;11.20;;
66800;SDS011;53703;50.326;19.122;2023-02-01T13:33:33;25.50;;;12.40;;
66800;SDS011;53703;50.326;19.122;2023-02-01T13:36:50;20.00;;;10.80;;
66800;SDS011;53703;50.326;19.122;2023-02-01T13:40:11;22.30;;;10.40;;
66800;SDS011;53703;50.326;19.122;2023-02-01T13:43:22;18.80;;;10.20;;
66800;SDS011;53703;50.326;19.122;2023-02-01T13:46:46;20.70;;;10.00;;
66800;SDS011;53703;50.326;19.122;2023-02-01T13:49:43;21.00;;;9.80;;
66800;SDS011;53703;50.326;19.122;2023-02-01T13:52:40;19.30;;;9.20;;
66800;SDS011;53703;50.326;19.122;2023-02-01T13:55:37;22.10;;;9.20;;
66800;SDS011;53703;50.326;19.122;2023-02-01T13:58:35;18.30;;;9.20;;
66800;SDS011;53703;50.326;19.122;2023-02-01T14:01:46;20.40;;;9.10;;
66800;SDS011;53703;50.326;19.122;2023-02-01T14:04:50;19.80;;;9.40;;
66800;SDS011;53703;50.326;19.122;2023-02-01T14:08:11;18.50;;;9.40;;
66800;SDS011;53703;50.326;19.122;2023-02-01T14:11:06;19.40;;;8.90;;
66800;SDS011;53703;50.326;19.122;2023-02-01T14:14:47;16.00;;;7.80;;
66800;SDS011;53703;50.326;19.122;2023-02-01T14:17:42;14.20;;;7.70;;
66800;SDS011;53703;50.326;19.122;2023-02-01T14:20:43;15.80;;;8.10;;
66800;SDS011;53703;50.326;19.122;2023-02-01T14:23:44;15.30;;;7.80;;
66800;SDS011;53703;50.326;19.122;2023-02-01T14:26:47;16.30;;;7.90;;
66800;SDS011;53703;50.326;19.122;2023-02-01T14:29:49;14.90;;;7.40;;
66800;SDS011;53703;50.326;19.122;2023-02-01T14:33:12;15.00;;;7.30;;
66800;SDS011;53703;50.326;19.122;2023-02-01T14:36:14;14.30;;;7.50;;
66800;SDS011;53703;50.326;19.122;2023-02-01T14:39:22;16.10;;;7.30;;
66800;SDS011;53703;50.326;19.122;2023-02-01T14:42:24;15.60;;;7.40;;
66800;SDS011;53703;50.326;19.122;2023-02-01T14:45:50;15.40;;;7.10;;
66800;SDS011;53703;50.326;19.122;2023-02-01T14:48:46;14.50;;;7.10;;
66800;SDS011;53703;50.326;19.122;2023-02-01T14:51:42;14.90;;;6.90;;
66800;SDS011;53703;50.326;19.122;2023-02-01T14:54:37;14.80;;;7.00;;
66800;SDS011;53703;50.326;19.122;2023-02-01T14:57:34;15.10;;;6.50;;
66800;SDS011;53703;50.326;19.122;2023-02-01T15:00:32;15.00;;;7.40;;
66800;SDS011;53703;50.326;19.122;2023-02-01T15:03:38;23.80;;;9.90;;
66800;SDS011;53703;50.326;19.122;2023-02-01T15:06:41;103.80;;;44.40;;
66800;SDS011;53703;50.326;19.122;2023-02-01T15:09:46;101.40;;;45.00;;
66800;SDS011;53703;50.326;19.122;2023-02-01T15:12:42;87.80;;;35.50;;
66800;SDS011;53703;50.326;19.122;2023-02-01T15:15:39;75.60;;;28.30;;
66800;SDS011;53703;50.326;19.122;2023-02-01T15:18:33;71.20;;;27.50;;
66800;SDS011;53703;50.326;19.122;2023-02-01T15:21:27;76.70;;;29.30;;
66800;SDS011;53703;50.326;19.122;2023-02-01T15:24:24;91.20;;;34.10;;
66800;SDS011;53703;50.326;19.122;2023-02-01T15:27:19;83.30;;;33.70;;
66800;SDS011;53703;50.326;19.122;2023-02-01T15:30:19;83.60;;;34.90;;
66800;SDS011;53703;50.326;19.122;2023-02-01T15:33:18;92.40;;;34.20;;
66800;SDS011;53703;50.326;19.122;2023-02-01T15:36:16;84.00;;;30.90;;
66800;SDS011;53703;50.326;19.122;2023-02-01T15:39:21;76.20;;;26.90;;
66800;SDS011;53703;50.326;19.122;2023-02-01T15:42:18;79.70;;;29.00;;
66800;SDS011;53703;50.326;19.122;2023-02-01T15:45:19;68.70;;;25.50;;
66800;SDS011;53703;50.326;19.122;2023-02-01T15:48:18;61.10;;;23.50;;
66800;SDS011;53703;50.326;19.122;2023-02-01T15:51:17;79.40;;;28.50;;
66800;SDS011;53703;50.326;19.122;2023-02-01T15:54:18;62.40;;;23.60;;
66800;SDS011;53703;50.326;19.122;2023-02-01T15:57:19;71.70;;;26.60;;
66800;SDS011;53703;50.326;19.122;2023-02-01T16:00:23;62.30;;;22.70;;
66800;SDS011;53703;50.326;19.122;2023-02-01T16:03:36;59.50;;;23.90;;
66800;SDS011;53703;50.326;19.122;2023-02-01T16:06:32;59.80;;;21.20;;
66800;SDS011;53703;50.326;19.122;2023-02-01T16:09:38;62.00;;;22.60;;
66800;SDS011;53703;50.326;19.122;2023-02-01T16:12:48;53.40;;;20.10;;
66800;SDS011;53703;50.326;19.122;2023-02-01T16:15:45;53.40;;;20.60;;
66800;SDS011;53703;50.326;19.122;2023-02-01T16:18:39;54.60;;;21.40;;
66800;SDS011;53703;50.326;19.122;2023-02-01T16:21:33;53.30;;;20.50;;
66800;SDS011;53703;50.326;19.122;2023-02-01T16:24:27;55.60;;;21.50;;
66800;SDS011;53703;50.326;19.122;2023-02-01T16:27:22;53.80;;;20.40;;
66800;SDS011;53703;50.326;19.122;2023-02-01T16:30:17;51.90;;;19.30;;
66800;SDS011;53703;50.326;19.122;2023-02-01T16:33:17;51.90;;;21.00;;
66800;SDS011;53703;50.326;19.122;2023-02-01T16:36:13;49.10;;;19.30;;
66800;SDS011;53703;50.326;19.122;2023-02-01T16:39:09;49.00;;;18.60;;
66800;SDS011;53703;50.326;19.122;2023-02-01T16:42:11;49.80;;;19.50;;
66800;SDS011;53703;50.326;19.122;2023-02-01T16:45:08;44.80;;;18.00;;
66800;SDS011;53703;50.326;19.122;2023-02-01T16:47:47;47.30;;;18.90;;
66800;SDS011;53703;50.326;19.122;2023-02-01T16:53:44;41.90;;;17.00;;
66800;SDS011;53703;50.326;19.122;2023-02-01T16:56:44;46.70;;;17.70;;
66800;SDS011;53703;50.326;19.122;2023-02-01T16:59:39;46.50;;;17.40;;
66800;SDS011;53703;50.326;19.122;2023-02-01T17:02:33;43.70;;;17.20;;
66800;SDS011;53703;50.326;19.122;2023-02-01T17:05:27;43.20;;;16.90;;
66800;SDS011;53703;50.326;19.122;2023-02-01T17:08:27;39.90;;;15.90;;
66800;SDS011;53703;50.326;19.122;2023-02-01T17:11:25;39.20;;;15.90;;
66800;SDS011;53703;50.326;19.122;2023-02-01T17:14:21;40.40;;;16.50;;
66800;SDS011;53703;50.326;19.122;2023-02-01T17:17:15;39.10;;;16.20;;
66800;SDS011;53703;50.326;19.122;2023-02-01T17:20:26;41.10;;;16.90;;
66800;SDS011;53703;50.326;19.122;2023-02-01T17:23:23;40.10;;;16.40;;
66800;SDS011;53703;50.326;19.122;2023-02-01T17:26:18;36.10;;;14.80;;
66800;SDS011;53703;50.326;19.122;2023-02-01T17:29:12;38.70;;;15.70;;
66800;SDS011;53703;50.326;19.122;2023-02-01T17:32:06;38.40;;;15.80;;
66800;SDS011;53703;50.326;19.122;2023-02-01T17:35:17;36.40;;;15.90;;
66800;SDS011;53703;50.326;19.122;2023-02-01T17:37:54;35.20;;;15.20;;
66800;SDS011;53703;50.326;19.122;2023-02-01T17:40:30;37.80;;;15.70;;
66800;SDS011;53703;50.326;19.122;2023-02-01T17:43:25;37.00;;;15.60;;
66800;SDS011;53703;50.326;19.122;2023-02-01T17:46:19;37.20;;;16.10;;